createdAt,value
2022-12-25T00:01:24.912Z,97986.67
2022-12-25T00:03:53.371Z,97983.42
2022-12-25T00:06:21.416Z,97975.71
2022-12-25T00:08:49.308Z,97973.02
2022-12-25T00:11:19.929Z,97978.68
2022-12-25T00:13:48.036Z,97980.57
2022-12-25T00:16:19.648Z,97985.60
2022-12-25T00:18:51.688Z,97989.52
2022-12-25T00:21:21.423Z,97993.85
2022-12-25T00:23:54.648Z,97993.23
2022-12-25T00:26:23.307Z,97996.06
2022-12-25T00:28:55.846Z,98002.11
2022-12-25T00:31:25.060Z,97999.34
2022-12-25T00:33:53.494Z,98005.48
2022-12-25T00:36:23.089Z,98007.13
2022-12-25T00:38:51.174Z,98017.89
2022-12-25T00:41:42.244Z,98020.45
2022-12-25T00:44:13.645Z,98026.40
2022-12-25T00:46:42.402Z,98036.13
2022-12-25T00:49:11.230Z,98044.55
2022-12-25T00:51:40.995Z,98049.66
2022-12-25T00:54:09.344Z,98049.48
2022-12-25T00:56:37.422Z,98052.20
2022-12-25T00:59:05.545Z,98060.11
2022-12-25T01:01:33.790Z,98067.03
2022-12-25T01:04:01.788Z,98071.11
2022-12-25T01:06:30.208Z,98067.11
2022-12-25T01:09:17.368Z,98072.67
2022-12-25T01:11:45.556Z,98075.11
2022-12-25T01:14:13.919Z,98074.55
2022-12-25T01:16:44.627Z,98075.23
2022-12-25T01:19:12.742Z,98073.67
2022-12-25T01:21:40.622Z,98075.00
2022-12-25T01:24:08.589Z,98086.64
2022-12-25T01:26:36.737Z,98092.51
2022-12-25T01:29:04.715Z,98095.08
2022-12-25T01:31:32.840Z,98098.05
2022-12-25T01:34:00.792Z,98102.34
2022-12-25T01:36:28.709Z,98100.54
2022-12-25T01:38:56.768Z,98097.36
2022-12-25T01:41:25.635Z,98096.52
2022-12-25T01:43:56.704Z,98096.32
2022-12-25T01:46:24.962Z,98098.73
2022-12-25T01:48:56.360Z,98098.20
2022-12-25T01:51:30.159Z,98098.86
2022-12-25T01:54:02.158Z,98099.30
2022-12-25T01:56:31.567Z,98100.16
2022-12-25T01:59:00.654Z,98106.63
2022-12-25T02:01:28.711Z,98112.33
2022-12-25T02:04:06.787Z,98120.38
2022-12-25T02:06:35.719Z,98130.31
2022-12-25T02:09:04.455Z,98133.40
2022-12-25T02:11:51.123Z,98139.48
2022-12-25T02:14:19.224Z,98138.89
2022-12-25T02:16:56.620Z,98136.43
2022-12-25T02:19:53.993Z,98139.93
2022-12-25T02:22:41.019Z,98137.41
2022-12-25T02:25:31.956Z,98134.01
2022-12-25T02:27:59.840Z,98138.10
2022-12-25T02:30:34.847Z,98142.99
2022-12-25T02:33:27.910Z,98142.35
2022-12-25T02:35:59.952Z,98144.01
2022-12-25T02:39:09.201Z,98142.30
2022-12-25T02:41:40.937Z,98140.29
2022-12-25T02:44:34.588Z,98141.05
2022-12-25T02:47:27.136Z,98138.49
2022-12-25T02:50:15.757Z,98133.90
2022-12-25T02:53:05.893Z,98135.98
2022-12-25T02:55:57.409Z,98129.05
2022-12-25T02:58:45.874Z,98131.69
2022-12-25T03:01:37.402Z,98132.80
2022-12-25T03:04:29.731Z,98128.23
2022-12-25T03:07:06.480Z,98131.09
2022-12-25T03:10:23.090Z,98141.71
2022-12-25T03:12:59.562Z,98139.55
2022-12-25T03:16:12.137Z,98138.37
2022-12-25T03:18:40.253Z,98137.20
2022-12-25T03:21:26.841Z,98139.77
2022-12-25T03:24:18.890Z,98133.20
2022-12-25T03:26:55.836Z,98141.23
2022-12-25T03:29:48.133Z,98144.83
2022-12-25T03:32:58.739Z,98147.92
2022-12-25T03:35:32.749Z,98148.48
2022-12-25T03:38:41.723Z,98146.74
2022-12-25T03:41:44.733Z,98150.70
2022-12-25T03:44:54.175Z,98141.69
2022-12-25T03:47:58.690Z,98139.73
2022-12-25T03:50:53.599Z,98142.89
2022-12-25T03:53:47.183Z,98150.27
2022-12-25T03:56:37.038Z,98158.02
2022-12-25T03:59:24.369Z,98168.54
2022-12-25T04:02:11.322Z,98168.73
2022-12-25T04:09:24.670Z,98167.34
2022-12-25T04:12:38.131Z,98170.73
2022-12-25T04:15:25.164Z,98174.85
2022-12-25T04:22:53.207Z,98182.42
2022-12-25T04:25:39.727Z,98186.76
2022-12-25T04:28:26.170Z,98186.43
2022-12-25T04:31:12.646Z,98190.81
2022-12-25T04:33:59.298Z,98190.89
2022-12-25T04:36:27.215Z,98195.88
2022-12-25T04:38:55.157Z,98201.29
2022-12-25T04:41:23.093Z,98205.59
2022-12-25T04:43:51.015Z,98210.30
2022-12-25T04:46:18.949Z,98208.57
2022-12-25T04:48:46.987Z,98205.64
2022-12-25T04:51:23.620Z,98204.21
2022-12-25T04:53:53.440Z,98210.50
2022-12-25T04:56:21.877Z,98209.34
2022-12-25T04:58:49.855Z,98216.61
2022-12-25T05:01:17.943Z,98213.56
2022-12-25T05:03:46.169Z,98208.81
2022-12-25T05:06:14.210Z,98210.67
2022-12-25T05:09:08.370Z,98205.56
2022-12-25T05:11:36.403Z,98205.54
2022-12-25T05:14:04.463Z,98204.50
2022-12-25T05:16:32.609Z,98204.77
2022-12-25T05:19:00.536Z,98207.21
2022-12-25T05:21:28.549Z,98207.21
2022-12-25T05:23:56.561Z,98209.21
2022-12-25T05:26:26.309Z,98209.60
2022-12-25T05:28:55.065Z,98213.78
2022-12-25T05:31:23.038Z,98216.79
2022-12-25T05:33:52.021Z,98218.26
2022-12-25T05:36:20.018Z,98222.49
2022-12-25T05:38:47.958Z,98227.84
2022-12-25T05:41:16.101Z,98228.84
2022-12-25T05:43:44.046Z,98227.91
2022-12-25T05:46:13.890Z,98232.38
2022-12-25T05:53:32.402Z,98240.95
2022-12-25T05:56:03.252Z,98241.39
2022-12-25T05:58:32.918Z,98247.94
2022-12-25T06:01:00.955Z,98252.41
2022-12-25T06:03:29.086Z,98252.67
2022-12-25T06:05:57.126Z,98252.95
2022-12-25T06:08:25.116Z,98252.98
2022-12-25T06:10:53.070Z,98251.37
2022-12-25T06:13:20.956Z,98242.13
2022-12-25T06:15:48.885Z,98241.20
2022-12-25T06:18:16.823Z,98252.45
2022-12-25T06:20:44.815Z,98259.78
2022-12-25T06:23:12.982Z,98267.91
2022-12-25T06:25:41.087Z,98272.60
2022-12-25T06:28:09.096Z,98273.20
2022-12-25T06:30:37.052Z,98275.09
2022-12-25T06:33:05.042Z,98282.06
2022-12-25T06:35:33.178Z,98285.21
2022-12-25T06:38:01.290Z,98289.16
2022-12-25T06:40:29.280Z,98285.23
2022-12-25T06:42:57.317Z,98290.89
2022-12-25T06:45:25.329Z,98302.96
2022-12-25T06:47:53.347Z,98310.52
2022-12-25T06:50:21.398Z,98313.57
2022-12-25T06:52:49.352Z,98323.80
2022-12-25T06:55:17.313Z,98325.48
2022-12-25T06:57:45.180Z,98324.14
2022-12-25T07:00:16.632Z,98322.70
2022-12-25T07:02:48.585Z,98333.38
2022-12-25T07:05:16.989Z,98342.34
2022-12-25T07:07:44.964Z,98347.38
2022-12-25T07:10:12.964Z,98349.98
2022-12-25T07:16:59.165Z,98360.09
2022-12-25T07:19:27.210Z,98367.46
2022-12-25T07:21:57.837Z,98372.71
2022-12-25T07:24:26.716Z,98378.25
2022-12-25T07:26:54.687Z,98390.21
2022-12-25T07:29:50.379Z,98396.02
2022-12-25T07:32:19.694Z,98405.34
2022-12-25T07:34:47.648Z,98403.55
2022-12-25T07:37:15.579Z,98396.01
2022-12-25T07:39:43.607Z,98401.02
2022-12-25T07:42:11.598Z,98404.75
2022-12-25T07:44:39.518Z,98401.71
2022-12-25T07:47:07.434Z,98395.84
2022-12-25T07:49:36.103Z,98398.38
2022-12-25T07:56:54.305Z,98401.10
2022-12-25T08:00:43.295Z,98401.72
2022-12-25T08:03:11.468Z,98399.91
2022-12-25T08:05:39.652Z,98397.52
2022-12-25T08:08:07.652Z,98394.62
2022-12-25T08:10:36.396Z,98400.60
2022-12-25T08:13:14.457Z,98400.02
2022-12-25T08:15:50.833Z,98397.45
2022-12-25T08:18:21.262Z,98399.16
2022-12-25T08:20:51.497Z,98402.55
2022-12-25T08:23:19.744Z,98401.18
2022-12-25T08:26:09.112Z,98400.45
2022-12-25T08:28:37.060Z,98407.21
2022-12-25T08:31:23.317Z,98407.54
2022-12-25T08:33:54.237Z,98411.39
2022-12-25T08:36:22.828Z,98407.73
2022-12-25T08:38:50.921Z,98405.33
2022-12-25T08:41:18.964Z,98402.19
2022-12-25T08:43:47.066Z,98398.63
2022-12-25T08:46:15.084Z,98394.14
2022-12-25T08:48:46.488Z,98391.70
2022-12-25T08:51:17.681Z,98384.88
2022-12-25T08:53:47.689Z,98385.15
2022-12-25T08:56:16.859Z,98384.30
2022-12-25T08:58:45.124Z,98391.17
2022-12-25T09:01:13.943Z,98407.42
2022-12-25T09:03:43.078Z,98416.52
2022-12-25T09:06:16.654Z,98420.73
2022-12-25T09:08:49.185Z,98426.90
2022-12-25T09:11:19.766Z,98433.79
2022-12-25T09:13:48.679Z,98432.10
2022-12-25T09:16:21.097Z,98429.03
2022-12-25T09:18:49.773Z,98427.64
2022-12-25T09:21:18.336Z,98435.91
2022-12-25T09:23:46.398Z,98436.77
2022-12-25T09:26:18.005Z,98436.02
2022-12-25T09:28:52.014Z,98436.31
2022-12-25T09:31:22.625Z,98433.70
2022-12-25T09:33:51.841Z,98436.39
2022-12-25T09:36:23.474Z,98434.83
2022-12-25T09:38:52.836Z,98437.73
2022-12-25T09:41:58.401Z,98446.84
2022-12-25T09:44:32.246Z,98446.23
2022-12-25T09:47:05.673Z,98440.66
2022-12-25T09:50:04.791Z,98446.97
2022-12-25T09:57:22.090Z,98456.36
2022-12-25T09:59:56.090Z,98455.39
2022-12-25T10:02:47.486Z,98460.08
2022-12-25T10:05:55.101Z,98460.13
2022-12-25T10:08:38.411Z,98460.64
2022-12-25T10:11:37.175Z,98458.27
2022-12-25T10:14:22.717Z,98455.17
2022-12-25T10:17:18.211Z,98454.59
2022-12-25T10:20:05.966Z,98452.38
2022-12-25T10:22:44.916Z,98445.35
2022-12-25T10:25:22.575Z,98434.66
2022-12-25T10:28:02.155Z,98435.06
2022-12-25T10:30:58.480Z,98430.52
2022-12-25T10:33:27.521Z,98431.56
2022-12-25T10:35:55.506Z,98430.95
2022-12-25T10:38:23.455Z,98428.12
2022-12-25T10:41:19.040Z,98424.79
2022-12-25T10:43:51.632Z,98419.36
2022-12-25T10:46:21.268Z,98420.40
2022-12-25T10:48:56.657Z,98417.91
2022-12-25T10:51:32.115Z,98413.38
2022-12-25T10:54:02.585Z,98407.06
2022-12-25T10:56:30.891Z,98392.27
2022-12-25T10:59:11.516Z,98390.63
2022-12-25T11:01:39.781Z,98388.51
2022-12-25T11:04:20.145Z,98392.96
2022-12-25T11:07:15.955Z,98390.45
2022-12-25T11:09:53.894Z,98381.96
2022-12-25T11:12:53.113Z,98379.77
2022-12-25T11:15:43.697Z,98380.52
2022-12-25T11:18:30.114Z,98376.20
2022-12-25T11:21:01.160Z,98376.34
2022-12-25T11:23:31.603Z,98369.90
2022-12-25T11:26:10.419Z,98373.14
2022-12-25T11:28:40.812Z,98372.66
2022-12-25T11:31:21.387Z,98356.44
2022-12-25T11:34:08.016Z,98363.73
2022-12-25T11:36:51.851Z,98365.64
2022-12-25T11:39:29.239Z,98369.83
2022-12-25T11:42:05.676Z,98364.25
2022-12-25T11:44:44.127Z,98370.39
2022-12-25T11:47:27.301Z,98365.13
2022-12-25T11:50:01.292Z,98368.66
2022-12-25T11:52:32.503Z,98369.41
2022-12-25T11:55:15.371Z,98369.06
2022-12-25T11:57:57.856Z,98366.19
2022-12-25T12:00:35.236Z,98360.72
2022-12-25T12:03:16.982Z,98356.58
2022-12-25T12:05:52.152Z,98351.52
2022-12-25T12:08:20.168Z,98350.96
2022-12-25T12:11:00.396Z,98351.51
2022-12-25T12:13:44.032Z,98352.66
2022-12-25T12:16:39.714Z,98357.98
2022-12-25T12:19:13.055Z,98361.98
2022-12-25T12:21:44.230Z,98364.20
2022-12-25T12:24:19.330Z,98361.42
2022-12-25T12:26:59.326Z,98360.13
2022-12-25T12:29:30.440Z,98359.95
2022-12-25T12:32:03.329Z,98360.09
2022-12-25T12:34:35.136Z,98358.61
2022-12-25T12:37:18.654Z,98359.10
2022-12-25T12:39:58.507Z,98354.52
2022-12-25T12:42:48.630Z,98353.12
2022-12-25T12:45:37.778Z,98348.66
2022-12-25T12:48:16.879Z,98350.48
2022-12-25T12:51:06.299Z,98359.10
2022-12-25T12:53:43.747Z,98359.95
2022-12-25T12:56:20.740Z,98358.64
2022-12-25T12:58:54.267Z,98349.82
2022-12-25T13:01:50.827Z,98352.02
2022-12-25T13:04:44.258Z,98352.29
2022-12-25T13:14:17.243Z,98354.19
2022-12-25T13:47:35.306Z,98345.79
2022-12-25T13:51:01.655Z,98348.30
2022-12-25T13:53:48.436Z,98342.13
2022-12-25T13:57:04.208Z,98347.89
2022-12-25T14:00:14.032Z,98356.51
2022-12-25T14:10:19.916Z,98349.99
2022-12-25T14:43:26.005Z,98357.96
2022-12-25T14:46:06.433Z,98361.42
2022-12-25T14:49:24.238Z,98352.08
2022-12-25T14:51:52.270Z,98332.84
2022-12-25T14:54:23.231Z,98331.27
2022-12-25T14:56:53.922Z,98319.06
2022-12-25T14:59:26.156Z,98322.33
2022-12-25T15:02:01.105Z,98331.77
2022-12-25T15:04:37.251Z,98339.09
2022-12-25T15:07:28.112Z,98348.08
2022-12-25T15:10:57.598Z,98356.54
2022-12-25T15:12:59.887Z,98359.52
2022-12-25T15:15:29.621Z,98364.18
2022-12-25T15:17:59.751Z,98365.64
2022-12-25T15:20:33.578Z,98373.39
2022-12-25T15:23:18.981Z,98377.02
2022-12-25T15:25:48.700Z,98376.44
2022-12-25T15:28:16.921Z,98375.86
2022-12-25T15:30:45.110Z,98384.32
2022-12-25T15:33:15.243Z,98381.66
2022-12-25T15:35:44.471Z,98376.62
2022-12-25T15:38:13.774Z,98368.80
2022-12-25T15:40:42.525Z,98371.12
2022-12-25T15:43:39.543Z,98370.23
2022-12-25T15:46:03.027Z,98356.65
2022-12-25T15:48:49.906Z,98350.08
2022-12-25T15:51:17.980Z,98337.33
2022-12-25T15:53:46.075Z,98328.60
2022-12-25T15:56:15.237Z,98331.54
2022-12-25T15:58:43.212Z,98335.33
2022-12-25T16:01:19.502Z,98331.54
2022-12-25T16:03:54.267Z,98327.21
2022-12-25T16:06:22.320Z,98325.17
2022-12-25T16:08:50.283Z,98316.63
2022-12-25T16:11:18.415Z,98311.64
2022-12-25T16:13:46.375Z,98304.16
2022-12-25T16:16:17.558Z,98304.83
2022-12-25T16:18:47.538Z,98301.29
2022-12-25T16:21:23.393Z,98302.98
2022-12-25T16:23:58.114Z,98301.59
2022-12-25T16:26:34.843Z,98308.12
2022-12-25T16:29:07.780Z,98299.54
2022-12-25T16:31:37.819Z,98300.21
2022-12-25T16:34:07.317Z,98301.98
2022-12-25T16:36:36.466Z,98303.65
2022-12-25T16:39:05.037Z,98311.20
2022-12-25T16:41:33.287Z,98314.66
2022-12-25T16:44:09.497Z,98321.76
2022-12-25T16:51:30.277Z,98320.14
2022-12-25T16:53:58.442Z,98312.29
2022-12-25T16:56:28.448Z,98306.89
2022-12-25T16:58:58.083Z,98301.67
2022-12-25T17:01:26.158Z,98301.12
2022-12-25T17:03:55.164Z,98306.93
2022-12-25T17:06:27.020Z,98300.45
2022-12-25T17:08:58.997Z,98297.23
2022-12-25T17:11:30.024Z,98296.27
2022-12-25T17:14:02.113Z,98301.98
2022-12-25T17:16:35.402Z,98296.69
2022-12-25T17:19:12.997Z,98291.66
2022-12-25T17:21:40.932Z,98290.61
2022-12-25T17:24:09.402Z,98283.97
2022-12-25T17:26:40.727Z,98289.98
2022-12-25T17:29:08.922Z,98283.52
2022-12-25T17:31:38.178Z,98275.40
2022-12-25T17:34:09.652Z,98264.71
2022-12-25T17:36:37.724Z,98258.72
2022-12-25T17:39:06.611Z,98255.59
2022-12-25T17:41:34.656Z,98244.59
2022-12-25T17:44:02.670Z,98236.36
2022-12-25T17:46:31.522Z,98230.97
2022-12-25T17:49:00.875Z,98234.44
2022-12-25T17:51:30.534Z,98236.17
2022-12-25T17:54:06.137Z,98235.89
2022-12-25T17:56:34.417Z,98239.01
2022-12-25T17:59:06.843Z,98239.84
2022-12-25T18:01:38.452Z,98227.13
2022-12-25T18:04:07.539Z,98224.31
2022-12-25T18:06:36.947Z,98228.70
2022-12-25T18:09:06.991Z,98233.23
2022-12-25T18:11:39.709Z,98236.58
2022-12-25T18:14:15.294Z,98238.88
2022-12-25T18:16:45.333Z,98242.23
2022-12-25T18:19:14.729Z,98245.71
2022-12-25T18:21:42.899Z,98244.61
2022-12-25T18:24:37.677Z,98237.95
2022-12-25T18:27:05.691Z,98237.39
2022-12-25T18:29:33.774Z,98238.75
2022-12-25T18:32:01.845Z,98238.80
2022-12-25T18:34:29.902Z,98241.65
2022-12-25T18:37:03.052Z,98246.27
2022-12-25T18:39:32.901Z,98245.02
2022-12-25T18:42:19.430Z,98229.23
2022-12-25T18:44:50.493Z,98227.63
2022-12-25T18:47:18.628Z,98224.37
2022-12-25T18:49:46.757Z,98222.20
2022-12-25T18:52:48.335Z,98224.31
2022-12-25T18:55:03.476Z,98225.77
2022-12-25T18:57:32.883Z,98227.74
2022-12-25T19:00:03.109Z,98232.42
2022-12-25T19:02:31.110Z,98227.48
2022-12-25T19:04:59.257Z,98220.57
2022-12-25T19:07:27.260Z,98209.88
2022-12-25T19:09:55.222Z,98200.38
2022-12-25T19:12:23.851Z,98194.85
2022-12-25T19:14:51.990Z,98191.79
2022-12-25T19:17:19.970Z,98197.52
2022-12-25T19:19:49.146Z,98210.24
2022-12-25T19:22:17.103Z,98217.55
2022-12-25T19:24:45.048Z,98214.02
2022-12-25T19:27:12.997Z,98205.82
2022-12-25T19:29:43.088Z,98199.14
2022-12-25T19:32:11.150Z,98196.27
2022-12-25T19:34:39.229Z,98191.55
2022-12-25T19:37:10.730Z,98191.34
2022-12-25T19:39:39.927Z,98187.98
2022-12-25T19:42:07.841Z,98187.58
2022-12-25T19:44:36.117Z,98190.38
2022-12-25T19:47:04.148Z,98190.23
2022-12-25T19:49:32.213Z,98184.34
2022-12-25T19:52:06.019Z,98179.45
2022-12-25T19:54:34.129Z,98167.04
2022-12-25T19:57:02.315Z,98163.11
2022-12-25T19:59:33.684Z,98168.06
2022-12-25T20:02:01.769Z,98169.24
2022-12-25T20:04:29.940Z,98165.98
2022-12-25T20:06:59.029Z,98164.92
2022-12-25T20:09:27.064Z,98168.02
2022-12-25T20:11:55.039Z,98175.80
2022-12-25T20:15:16.409Z,98175.94
2022-12-25T20:17:47.065Z,98169.46
2022-12-25T20:20:14.951Z,98153.52
2022-12-25T20:22:42.898Z,98143.40
2022-12-25T20:25:11.492Z,98134.55
2022-12-25T20:27:39.543Z,98129.20
2022-12-25T20:30:13.452Z,98138.81
2022-12-25T20:32:46.454Z,98137.55
2022-12-25T20:35:18.006Z,98133.05
2022-12-25T20:37:46.074Z,98139.02
2022-12-25T20:40:14.034Z,98143.84
2022-12-25T20:43:33.450Z,98139.39
2022-12-25T20:46:01.499Z,98133.27
2022-12-25T20:48:29.648Z,98136.08
2022-12-25T20:51:12.038Z,98132.23
2022-12-25T20:53:40.970Z,98128.40
2022-12-25T20:56:12.197Z,98122.33
2022-12-25T20:58:41.100Z,98117.40
2022-12-25T21:01:15.222Z,98106.38
2022-12-25T21:03:44.345Z,98102.25
2022-12-25T21:06:13.281Z,98107.73
2022-12-25T21:08:44.576Z,98101.96
2022-12-25T21:11:14.229Z,98094.99
2022-12-25T21:13:45.360Z,98092.77
2022-12-25T21:16:18.475Z,98089.70
2022-12-25T21:18:47.834Z,98082.41
2022-12-25T21:22:10.463Z,98080.13
2022-12-25T21:24:38.516Z,98092.04
2022-12-25T21:27:06.464Z,98097.27
2022-12-25T21:29:34.485Z,98100.61
2022-12-25T21:32:20.983Z,98090.13
2022-12-25T21:34:49.662Z,98067.69
2022-12-25T21:37:21.432Z,98056.92
2022-12-25T21:39:50.688Z,98050.80
2022-12-25T21:42:18.682Z,98044.13
2022-12-25T21:44:48.130Z,98039.30
2022-12-25T21:47:17.254Z,98044.88
2022-12-25T21:50:03.882Z,98057.99
2022-12-25T21:52:32.823Z,98060.77
2022-12-25T21:55:00.825Z,98064.51
2022-12-25T21:57:28.801Z,98059.02
2022-12-25T21:59:58.748Z,98054.31
2022-12-25T22:02:27.280Z,98061.08
2022-12-25T22:04:56.427Z,98060.96
2022-12-25T22:07:24.374Z,98054.31
2022-12-25T22:09:52.427Z,98045.28
2022-12-25T22:12:39.981Z,98041.27
2022-12-25T22:15:10.123Z,98038.31
2022-12-25T22:18:02.038Z,98036.46
2022-12-25T22:20:34.875Z,98045.73
2022-12-25T22:23:03.824Z,98043.57
2022-12-25T22:25:31.986Z,98040.77
2022-12-25T22:28:00.327Z,98035.33
2022-12-25T22:30:29.376Z,98030.90
2022-12-25T22:32:57.688Z,98030.50
2022-12-25T22:35:25.684Z,98023.30
2022-12-25T22:37:54.176Z,98013.50
2022-12-25T22:40:22.233Z,98011.23
2022-12-25T22:42:53.655Z,98010.59
2022-12-25T22:45:21.569Z,98014.61
2022-12-25T22:47:49.598Z,98010.61
2022-12-25T22:50:17.631Z,98005.13
2022-12-25T22:52:46.624Z,97999.95
2022-12-25T22:55:18.696Z,98003.98
2022-12-25T22:57:46.786Z,98007.16
2022-12-25T23:00:14.876Z,98013.29
2022-12-25T23:02:43.110Z,97994.45
2022-12-25T23:05:11.264Z,97989.31
2022-12-25T23:07:40.428Z,97987.02
2022-12-25T23:10:08.792Z,97980.16
2022-12-25T23:12:55.348Z,97974.73
2022-12-25T23:15:23.298Z,97973.17
2022-12-25T23:18:10.045Z,97980.25
2022-12-25T23:20:56.574Z,97988.23
2022-12-25T23:23:43.104Z,97995.88
2022-12-25T23:26:11.453Z,97993.28
2022-12-25T23:29:00.491Z,97986.42
2022-12-25T23:31:32.574Z,97980.91
2022-12-25T23:34:01.520Z,97980.96
2022-12-25T23:36:29.665Z,97990.48
2022-12-25T23:39:01.596Z,97985.24
2022-12-25T23:41:33.028Z,97981.69
2022-12-25T23:44:00.961Z,97981.80
2022-12-25T23:46:29.053Z,97983.80
2022-12-25T23:48:57.430Z,97989.98
2022-12-25T23:51:25.358Z,97986.52
2022-12-25T23:53:53.305Z,97986.30
2022-12-25T23:56:31.245Z,97978.45
2022-12-25T23:58:59.380Z,97976.52
